»·PEaware :: SKW1302 KBUR-KSAN

SKW1302 :: KBUR-KSAN

FLIGHT INFORMATION

Flight Status: Arrived
Operator:
SkyWest Airlines
More flights by this operator :: More flights under this callsign
Pilot: Oliver B. (21155)
Aircraft: CANADAIR CL-600 CRJ-700
(CRJ7)
More flights by this aircraft type
Origin: KBUR Bob Hope-Burbank
United States
Destination: KSAN San Diego Intl-Lindbergh
United States
More flights between these airports :: More routes between these airports
Route: +VNY3 TWINE V518 KIMMO V459 SLI SLI171 LAX118 CARDI MZB320 MZB
File this flight plan on PilotEdge
Remarks:
Altitude:
(Current/Filed)
23,000ft
Speed:
(Current/Filed)
445kts
Departed: 21-Nov-20 12:51 PM
Arrived: 21-Nov-20 01:46 PM
Distance/Time
Traveled:
106nm/0:55
Distance/Time
To Go:
Arrived

Flight Plot

Page will automatically refresh every two minutes.


Map Options




Map Legend


Flown Route
Filed Route
Departure Airport
Arrival Airport
Navaid (VOR, NDB)
Fix

Horizontal Profiles

Position Reports

Time Latitude Longitude Heading Altitude Ground
Speed
21-Nov-20 12:08 34.196767 -118.350144 180 728ft 0kts
21-Nov-20 12:09 34.196767 -118.350144 180 728ft 0kts
21-Nov-20 12:11 34.196767 -118.350144 180 728ft 0kts
21-Nov-20 12:12 34.196767 -118.350144 180 728ft 0kts
21-Nov-20 12:13 34.196767 -118.350144 180 728ft 0kts
21-Nov-20 12:14 34.196767 -118.350144 180 728ft 0kts
21-Nov-20 12:15 34.196767 -118.350144 180 728ft 0kts
21-Nov-20 12:16 34.196767 -118.350144 180 728ft 0kts
21-Nov-20 12:17 34.196767 -118.350144 180 728ft 0kts
21-Nov-20 12:18 34.196767 -118.350144 180 728ft 0kts
21-Nov-20 12:19 34.196767 -118.350144 180 728ft 0kts
21-Nov-20 12:20 34.196767 -118.350144 180 728ft 0kts
21-Nov-20 12:21 34.196767 -118.350144 180 728ft 0kts
21-Nov-20 12:22 34.196767 -118.350144 180 728ft 0kts
21-Nov-20 12:23 34.196767 -118.350144 180 728ft 0kts
21-Nov-20 12:24 34.196767 -118.350144 180 728ft 0kts
21-Nov-20 12:24 34.196767 -118.350144 180 728ft 0kts
21-Nov-20 12:26 34.196767 -118.350144 180 728ft 0kts
21-Nov-20 12:26 34.196767 -118.350144 180 728ft 0kts
21-Nov-20 12:28 34.196767 -118.350144 180 728ft 0kts
21-Nov-20 12:28 34.196767 -118.350144 180 728ft 0kts
21-Nov-20 12:29 34.196767 -118.350144 180 728ft 0kts
21-Nov-20 12:31 34.196767 -118.350144 180 728ft 0kts
21-Nov-20 12:31 34.196767 -118.350144 180 728ft 0kts
21-Nov-20 12:32 34.196767 -118.350144 180 728ft 0kts
21-Nov-20 12:33 34.196767 -118.350144 180 728ft 0kts
21-Nov-20 12:34 34.196767 -118.350144 180 728ft 0kts
21-Nov-20 12:35 34.196767 -118.350144 180 728ft 0kts
21-Nov-20 12:36 34.196767 -118.350144 180 728ft 0kts
21-Nov-20 12:37 34.196953 -118.350122 195 728ft 2kts
21-Nov-20 12:38 34.197140 -118.349847 271 728ft 0kts
21-Nov-20 12:39 34.197140 -118.349850 271 728ft 0kts
21-Nov-20 12:40 34.197140 -118.349852 271 728ft 0kts
21-Nov-20 12:41 34.197141 -118.349855 271 728ft 0kts
21-Nov-20 12:42 34.197331 -118.350153 325 728ft 4kts
21-Nov-20 12:43 34.198792 -118.352702 274 728ft 14kts
21-Nov-20 12:44 34.200143 -118.355717 347 728ft 11kts
21-Nov-20 12:45 34.203582 -118.356658 347 728ft 14kts
21-Nov-20 12:46 34.207686 -118.357802 347 728ft 16kts
21-Nov-20 12:47 34.211500 -118.358934 311 728ft 0kts
21-Nov-20 12:48 34.211501 -118.358936 311 728ft 0kts
21-Nov-20 12:49 34.211909 -118.359738 269 728ft 9kts
21-Nov-20 12:50 34.188883 -118.354705 174 1594ft 171kts
21-Nov-20 12:51 34.146420 -118.394745 227 3995ft 265kts
21-Nov-20 12:52 34.120524 -118.460358 267 6622ft 227kts
21-Nov-20 12:53 34.147150 -118.515918 355 8294ft 224kts
21-Nov-20 12:54 34.210852 -118.524392 351 9817ft 232kts
21-Nov-20 12:55 34.276728 -118.522050 21 10970ft 260kts
21-Nov-20 12:56 34.292444 -118.437732 125 11060ft 316kts
21-Nov-20 12:57 34.215969 -118.378548 141 11060ft 350kts
21-Nov-20 12:58 34.158360 -118.282646 125 10994ft 360kts
21-Nov-20 12:59 34.076127 -118.221610 158 10991ft 353kts
21-Nov-20 13:00 33.986791 -118.172817 157 10983ft 357kts
21-Nov-20 13:01 33.907490 -118.125464 156 10979ft 360kts
21-Nov-20 13:19 34.080215 -118.226697 160 10974ft 387kts
21-Nov-20 13:20 33.983189 -118.170577 155 10970ft 386kts
21-Nov-20 13:21 33.886889 -118.113352 157 10962ft 386kts
21-Nov-20 13:22 33.789264 -118.060376 166 10955ft 382kts
21-Nov-20 13:23 33.685437 -118.064685 189 11014ft 375kts
21-Nov-20 13:24 33.595959 -118.010720 123 11031ft 391kts
21-Nov-20 13:25 33.526277 -117.911021 136 11017ft 393kts
21-Nov-20 13:26 33.449092 -117.817420 134 10999ft 397kts
21-Nov-20 13:27 33.373474 -117.720319 134 10991ft 399kts
21-Nov-20 13:28 33.297421 -117.623584 134 10991ft 400kts
21-Nov-20 13:29 33.220597 -117.527336 135 10982ft 400kts
21-Nov-20 13:30 33.143432 -117.431495 135 10983ft 400kts
21-Nov-20 13:31 33.049727 -117.374004 158 10957ft 347kts
21-Nov-20 13:32 32.971789 -117.331079 156 10683ft 283kts
21-Nov-20 13:33 32.901729 -117.291710 155 9359ft 275kts
21-Nov-20 13:34 32.833067 -117.254092 155 7967ft 268kts
21-Nov-20 13:35 32.795596 -117.188597 100 7009ft 253kts
21-Nov-20 13:36 32.781744 -117.104933 101 6997ft 262kts
21-Nov-20 13:37 32.768146 -117.025675 101 6734ft 228kts
21-Nov-20 13:38 32.755524 -116.952637 101 5745ft 223kts
21-Nov-20 13:39 32.726182 -116.895953 182 4656ft 221kts
21-Nov-20 13:40 32.697440 -116.950605 252 4004ft 191kts
21-Nov-20 13:41 32.686453 -117.009810 289 3247ft 195kts
21-Nov-20 13:42 32.703395 -117.070830 288 2354ft 203kts
21-Nov-20 13:43 32.719031 -117.129085 293 1649ft 164kts
21-Nov-20 13:44 32.729559 -117.173923 287 174ft 122kts
21-Nov-20 13:45 32.732466 -117.188742 243 22ft 1kts
21-Nov-20 13:46 32.732440 -117.188804 243 22ft 0kts
21-Nov-20 13:47 32.732439 -117.188807 243 22ft 0kts
21-Nov-20 13:48 32.732462 -117.189416 285 22ft 7kts
21-Nov-20 13:49 32.733795 -117.194897 285 22ft 14kts
21-Nov-20 13:50 32.733145 -117.195699 226 22ft 0kts
21-Nov-20 13:51 32.733145 -117.195699 226 22ft 0kts
21-Nov-20 13:52 32.733145 -117.195699 226 22ft 0kts

Navigation Log

Ident Type
Flight plan parsing failed, navigation log unavailable